Aviation Digital Data Service (ADDS)

Output produced by METARs form (2014 UTC 23 January 2019)
found at http://www.aviationweather.gov/metar/data/
 
Forecast for: FSIA (SEYCHELLES INTL , SC)
Text: TAF FSIA 231715Z 2318/2418 32005KT 9999 FEW018CB SCT022
Forecast period: 1800 UTC 23 January 2019 to 1800 UTC 24 January 2019
Forecast type: FROM: standard forecast or significant change
Winds: from the NW (320 degrees) at 6 MPH (5 knots; 2.6 m/s)
Visibility: 6 or more miles 10+ km)
Ceiling: at least 12,000 feet AGL
Clouds: few clouds at 1800 feet AGL
scattered clouds at 2200 feet AGL
Weather: no significant weather forecast for this period
Text: PROB40
Forecast period: 1900 UTC 23 January 2019 to 0100 UTC 24 January 2019
Forecast type: TEMPORARY: The following changes expected for less than half the time period
Visibility: 5 miles (8 km)
Ceiling: 2000 feet AGL
Clouds: few clouds at 1800 feet AGL
broken clouds at 2000 feet AGL
Weather: -SHRA  (light rain showers)
Text: TEMPO 2319/2401 8000 -SHRA FEW018 BKN020
Forecast period: 0900 to 1800 UTC 24 January 2019
Forecast type: TEMPORARY: The following changes expected for less than half the time period
Visibility: 5 miles (8 km)
Ceiling: 2000 feet AGL
Clouds: few clouds at 1400 feet AGL
few clouds at 1600 feet AGL
broken clouds at 2000 feet AGL
Weather: -SHRA  (light rain showers)